createdAt,value
2018-12-31T00:01:24.183Z,101522.51
2018-12-31T00:03:51.819Z,101531.14
2018-12-31T00:06:19.449Z,101520.55
2018-12-31T00:08:47.373Z,101528.97
2018-12-31T00:11:15.001Z,101535.20
2018-12-31T00:13:42.904Z,101541.34
2018-12-31T00:16:10.875Z,101536.44
2018-12-31T00:18:38.581Z,101537.72
2018-12-31T00:21:06.216Z,101546.52
2018-12-31T00:23:33.852Z,101543.95
2018-12-31T00:26:01.730Z,101546.91
2018-12-31T00:28:29.355Z,101550.58
2018-12-31T00:30:56.987Z,101559.59
2018-12-31T00:33:24.607Z,101553.88
2018-12-31T00:35:52.255Z,101555.32
2018-12-31T00:38:20.144Z,101553.02
2018-12-31T00:40:48.113Z,101557.97
2018-12-31T00:43:15.729Z,101559.25
2018-12-31T00:45:43.747Z,101560.27
2018-12-31T00:48:11.715Z,101567.95
2018-12-31T00:50:39.353Z,101569.20
2018-12-31T00:53:06.978Z,101562.50
2018-12-31T00:55:35.001Z,101574.88
2018-12-31T00:58:02.983Z,101575.86
2018-12-31T01:00:30.619Z,101584.23
2018-12-31T01:02:58.509Z,101588.84
2018-12-31T01:05:26.476Z,101594.44
2018-12-31T01:07:54.550Z,101595.42
2018-12-31T01:10:22.187Z,101596.01
2018-12-31T01:12:49.820Z,101598.41
2018-12-31T01:15:17.738Z,101588.45
2018-12-31T01:17:45.712Z,101584.31
2018-12-31T01:20:13.336Z,101585.13
2018-12-31T01:22:41.247Z,101591.23
2018-12-31T01:25:09.211Z,101585.13
2018-12-31T01:27:37.180Z,101584.27
2018-12-31T01:30:04.816Z,101583.13
2018-12-31T01:32:32.713Z,101580.00
2018-12-31T01:35:00.681Z,101583.34
2018-12-31T01:37:28.665Z,101579.66
2018-12-31T01:39:56.307Z,101585.00
2018-12-31T01:42:24.285Z,101582.22
2018-12-31T01:44:51.919Z,101579.88
2018-12-31T01:47:19.541Z,101577.53
2018-12-31T01:49:47.492Z,101578.43
2018-12-31T01:52:15.120Z,101585.30
2018-12-31T01:54:43.101Z,101585.47
2018-12-31T01:57:10.729Z,101578.43
2018-12-31T01:59:38.635Z,101580.09
2018-12-31T02:02:06.606Z,101576.33
2018-12-31T02:04:34.583Z,101583.77
2018-12-31T02:07:02.454Z,101589.69
2018-12-31T02:09:30.412Z,101588.45
2018-12-31T02:11:58.378Z,101590.97
2018-12-31T02:14:26.348Z,101583.77
2018-12-31T02:16:54.322Z,101576.37
2018-12-31T02:19:22.285Z,101583.77
2018-12-31T02:21:50.259Z,101582.73
2018-12-31T02:24:18.233Z,101588.63
2018-12-31T02:26:46.197Z,101590.17
2018-12-31T02:29:14.274Z,101583.21
2018-12-31T02:31:42.238Z,101591.92
2018-12-31T02:34:09.863Z,101590.68
2018-12-31T02:36:37.785Z,101589.91
2018-12-31T02:39:05.740Z,101597.05
2018-12-31T02:41:33.376Z,101598.84
2018-12-31T02:44:01.278Z,101610.63
2018-12-31T02:46:29.236Z,101614.13
2018-12-31T02:48:56.880Z,101614.13
2018-12-31T02:51:24.492Z,101611.47
2018-12-31T02:53:52.430Z,101609.90
2018-12-31T02:56:20.402Z,101610.97
2018-12-31T02:58:48.372Z,101609.90
2018-12-31T03:01:16.338Z,101607.08
2018-12-31T03:03:43.968Z,101603.70
2018-12-31T03:06:11.600Z,101601.15
2018-12-31T03:08:39.535Z,101598.37
2018-12-31T03:11:07.521Z,101601.77
2018-12-31T03:13:35.471Z,101601.77
2018-12-31T03:16:03.107Z,101612.50
2018-12-31T03:18:31.000Z,101608.40
2018-12-31T03:20:58.636Z,101607.63
2018-12-31T03:23:26.541Z,101599.59
2018-12-31T03:25:54.499Z,101606.60
2018-12-31T03:28:22.489Z,101609.39
2018-12-31T03:30:50.463Z,101600.97
2018-12-31T03:33:18.083Z,101602.50
2018-12-31T03:35:45.969Z,101611.95
2018-12-31T03:38:13.586Z,101611.95
2018-12-31T03:40:41.224Z,101618.86
2018-12-31T03:43:08.848Z,101618.35
2018-12-31T03:45:36.829Z,101621.75
2018-12-31T03:48:04.794Z,101614.80
2018-12-31T03:50:32.764Z,101615.12
2018-12-31T03:53:00.398Z,101630.69
2018-12-31T03:55:28.036Z,101623.26
2018-12-31T03:57:55.956Z,101627.09
2018-12-31T04:00:23.570Z,101621.59
2018-12-31T04:02:51.481Z,101622.66
2018-12-31T04:05:19.462Z,101621.59
2018-12-31T04:07:53.045Z,101623.26
2018-12-31T04:10:16.424Z,101636.77
2018-12-31T04:12:44.395Z,101634.91
2018-12-31T04:15:12.383Z,101629.02
2018-12-31T04:17:39.999Z,101626.94
2018-12-31T04:20:07.890Z,101628.42
2018-12-31T04:22:35.519Z,101628.42
2018-12-31T04:25:03.433Z,101642.05
2018-12-31T04:27:31.389Z,101637.34
2018-12-31T04:29:59.088Z,101632.90
2018-12-31T04:32:27.042Z,101632.90
2018-12-31T04:34:54.986Z,101648.84
2018-12-31T04:37:22.954Z,101632.73
2018-12-31T04:39:50.930Z,101632.73
2018-12-31T04:42:18.567Z,101638.59
2018-12-31T04:44:46.453Z,101645.00
2018-12-31T04:47:14.437Z,101634.78
2018-12-31T04:49:42.046Z,101634.78
2018-12-31T04:52:09.682Z,101640.26
2018-12-31T04:54:37.614Z,101636.58
2018-12-31T04:57:05.592Z,101643.20
2018-12-31T04:59:33.294Z,101639.36
2018-12-31T05:02:01.221Z,101642.95
2018-12-31T05:04:28.843Z,101642.95
2018-12-31T05:06:56.852Z,101645.05
2018-12-31T05:09:24.475Z,101637.83
2018-12-31T05:11:52.112Z,101647.62
2018-12-31T05:14:20.046Z,101653.64
2018-12-31T05:16:47.686Z,101659.41
2018-12-31T05:19:15.319Z,101647.23
2018-12-31T05:21:42.947Z,101634.77
2018-12-31T05:24:10.898Z,101636.73
2018-12-31T05:26:38.868Z,101626.22
2018-12-31T05:29:06.840Z,101639.89
2018-12-31T05:31:34.811Z,101640.73
2018-12-31T05:34:02.715Z,101640.73
2018-12-31T05:36:30.645Z,101657.67
2018-12-31T05:38:58.611Z,101649.47
2018-12-31T05:41:26.234Z,101652.48
2018-12-31T05:43:53.868Z,101645.78
2018-12-31T05:46:21.495Z,101645.78
2018-12-31T05:48:49.112Z,101651.94
2018-12-31T05:51:17.051Z,101642.33
2018-12-31T05:53:45.009Z,101652.10
2018-12-31T05:56:12.630Z,101640.05
2018-12-31T05:58:40.526Z,101640.05
2018-12-31T06:01:08.151Z,101656.22
2018-12-31T06:03:36.060Z,101650.10
2018-12-31T06:06:04.029Z,101652.28
2018-12-31T06:08:32.015Z,101652.28
2018-12-31T06:10:59.968Z,101651.94
2018-12-31T06:13:27.940Z,101654.92
2018-12-31T06:15:57.179Z,101648.08
2018-12-31T06:18:25.004Z,101648.30
2018-12-31T06:20:52.625Z,101658.51
2018-12-31T06:23:20.258Z,101664.23
2018-12-31T06:25:48.199Z,101666.20
2018-12-31T06:28:16.167Z,101665.58
2018-12-31T06:30:43.791Z,101661.80
2018-12-31T06:33:11.691Z,101654.95
2018-12-31T06:35:39.577Z,101654.95
2018-12-31T06:38:07.534Z,101671.14
2018-12-31T06:40:35.500Z,101668.92
2018-12-31T06:43:03.139Z,101676.61
2018-12-31T06:45:30.764Z,101676.16
2018-12-31T06:47:58.393Z,101676.16
2018-12-31T06:50:26.354Z,101688.58
2018-12-31T06:52:53.984Z,101698.42
2018-12-31T06:55:21.607Z,101699.02
2018-12-31T06:57:49.548Z,101699.02
2018-12-31T07:00:17.515Z,101706.33
2018-12-31T07:02:45.486Z,101699.88
2018-12-31T07:05:13.106Z,101700.11
2018-12-31T07:07:40.730Z,101705.92
2018-12-31T07:10:08.353Z,101701.09
2018-12-31T07:12:36.235Z,101713.27
2018-12-31T07:15:04.224Z,101708.75
2018-12-31T07:17:32.174Z,101706.88
2018-12-31T07:20:00.163Z,101718.97
2018-12-31T07:22:27.779Z,101716.91
2018-12-31T07:24:55.676Z,101725.25
2018-12-31T07:27:23.670Z,101720.12
2018-12-31T07:29:51.307Z,101720.94
2018-12-31T07:32:18.938Z,101736.16
2018-12-31T07:34:46.554Z,101737.22
2018-12-31T07:37:14.189Z,101746.47
2018-12-31T07:39:42.060Z,101740.39
2018-12-31T07:42:10.048Z,101741.63
2018-12-31T07:44:37.667Z,101744.08
2018-12-31T07:47:05.294Z,101740.35
2018-12-31T07:49:33.240Z,101739.42
2018-12-31T07:52:01.193Z,101739.42
2018-12-31T07:54:28.825Z,101730.53
2018-12-31T07:56:56.719Z,101734.38
2018-12-31T07:59:24.356Z,101736.12
2018-12-31T08:01:52.269Z,101733.43
2018-12-31T08:04:20.227Z,101738.30
2018-12-31T08:06:48.199Z,101736.51
2018-12-31T08:09:16.162Z,101734.45
2018-12-31T08:11:44.126Z,101733.09
2018-12-31T08:14:12.114Z,101727.19
2018-12-31T08:16:39.753Z,101735.78
2018-12-31T08:19:07.382Z,101740.92
2018-12-31T08:21:35.292Z,101746.95
2018-12-31T08:24:03.272Z,101737.97
2018-12-31T08:26:31.232Z,101747.38
2018-12-31T08:28:59.209Z,101745.16
2018-12-31T08:31:27.173Z,101754.48
2018-12-31T08:33:55.140Z,101755.25
2018-12-31T08:36:22.764Z,101754.66
2018-12-31T08:38:50.475Z,101751.87
2018-12-31T08:41:18.433Z,101737.03
2018-12-31T08:43:46.071Z,101753.66
2018-12-31T08:46:13.692Z,101759.61
2018-12-31T08:48:41.329Z,101743.31
2018-12-31T08:51:08.953Z,101748.89
2018-12-31T08:53:36.851Z,101753.29
2018-12-31T08:56:04.477Z,101755.91
2018-12-31T08:58:32.190Z,101758.77
2018-12-31T09:00:59.818Z,101756.08
2018-12-31T09:03:27.804Z,101737.73
2018-12-31T09:05:56.079Z,101750.17
2018-12-31T09:08:24.058Z,101752.05
2018-12-31T09:10:51.694Z,101758.86
2018-12-31T09:13:19.325Z,101760.27
2018-12-31T09:15:46.947Z,101764.67
2018-12-31T09:18:14.910Z,101763.16
2018-12-31T09:20:42.876Z,101761.36
2018-12-31T09:23:10.507Z,101767.22
2018-12-31T09:25:38.409Z,101755.76
2018-12-31T09:28:06.042Z,101755.81
2018-12-31T09:30:33.933Z,101758.17
2018-12-31T09:33:01.573Z,101758.31
2018-12-31T09:35:29.195Z,101749.48
2018-12-31T09:37:56.827Z,101749.48
2018-12-31T09:40:24.468Z,101750.20
2018-12-31T09:42:52.452Z,101750.61
2018-12-31T09:45:20.440Z,101743.47
2018-12-31T09:47:48.394Z,101747.63
2018-12-31T09:50:16.370Z,101742.19
2018-12-31T09:52:44.333Z,101737.47
2018-12-31T09:55:11.967Z,101737.92
2018-12-31T09:57:39.868Z,101740.19
2018-12-31T10:00:07.831Z,101741.41
2018-12-31T10:02:35.831Z,101730.36
2018-12-31T10:05:03.448Z,101738.20
2018-12-31T10:07:31.361Z,101731.98
2018-12-31T10:09:59.300Z,101729.72
2018-12-31T10:12:26.945Z,101732.31
2018-12-31T10:14:54.646Z,101734.03
2018-12-31T10:17:22.603Z,101733.55
2018-12-31T10:19:50.565Z,101733.55
2018-12-31T10:22:18.197Z,101724.78
2018-12-31T10:24:45.834Z,101729.80
2018-12-31T10:27:13.757Z,101730.44
2018-12-31T10:29:41.743Z,101733.09
2018-12-31T10:32:09.370Z,101728.08
2018-12-31T10:34:36.999Z,101730.20
2018-12-31T10:37:04.920Z,101721.45
2018-12-31T10:39:32.561Z,101719.27
2018-12-31T10:42:00.267Z,101710.02
2018-12-31T10:44:27.895Z,101720.24
2018-12-31T10:46:55.875Z,101714.39
2018-12-31T10:49:23.843Z,101716.43
2018-12-31T10:51:51.819Z,101710.00
2018-12-31T10:54:19.495Z,101704.47
2018-12-31T10:56:47.445Z,101701.90
2018-12-31T10:59:15.416Z,101700.19
2018-12-31T11:01:43.383Z,101707.05
2018-12-31T11:04:11.023Z,101704.01
2018-12-31T11:06:38.913Z,101704.20
2018-12-31T11:09:06.556Z,101702.22
2018-12-31T11:11:34.470Z,101702.61
2018-12-31T11:14:02.418Z,101698.86
2018-12-31T11:16:30.384Z,101700.73
2018-12-31T11:18:58.392Z,101688.46
2018-12-31T11:21:26.019Z,101696.21
2018-12-31T11:23:53.649Z,101693.41
2018-12-31T11:26:21.564Z,101690.56
2018-12-31T11:28:49.515Z,101694.89
2018-12-31T11:31:17.147Z,101698.16
2018-12-31T11:33:45.051Z,101694.58
2018-12-31T11:36:13.021Z,101698.36
2018-12-31T11:38:40.984Z,101696.77
2018-12-31T11:41:08.955Z,101691.16
2018-12-31T11:43:36.580Z,101684.80
2018-12-31T11:46:04.483Z,101690.84
2018-12-31T11:48:32.470Z,101689.63
2018-12-31T11:51:00.127Z,101692.75
2018-12-31T11:53:28.087Z,101692.75
2018-12-31T11:55:56.056Z,101693.02
2018-12-31T11:58:24.030Z,101684.25
2018-12-31T12:00:51.992Z,101680.86
2018-12-31T12:03:19.966Z,101672.14
2018-12-31T12:05:47.935Z,101669.41
2018-12-31T12:08:15.800Z,101666.91
2018-12-31T12:10:43.436Z,101670.38
2018-12-31T12:13:11.331Z,101667.02
2018-12-31T12:15:39.298Z,101665.70
2018-12-31T12:18:06.925Z,101668.31
2018-12-31T12:20:34.551Z,101662.47
2018-12-31T12:23:02.492Z,101667.30
2018-12-31T12:25:30.464Z,101667.50
2018-12-31T12:27:58.433Z,101668.31
2018-12-31T12:30:26.613Z,101663.75
2018-12-31T12:32:54.597Z,101662.47
2018-12-31T12:35:22.230Z,101662.86
2018-12-31T12:37:49.864Z,101662.38
2018-12-31T12:40:17.518Z,101660.67
2018-12-31T12:42:45.111Z,101663.44
2018-12-31T12:45:12.735Z,101670.09
2018-12-31T12:47:40.654Z,101668.92
2018-12-31T12:50:08.640Z,101667.91
2018-12-31T12:52:36.264Z,101667.91
2018-12-31T12:55:04.154Z,101679.22
2018-12-31T12:57:32.124Z,101673.36
2018-12-31T13:00:00.174Z,101679.79
2018-12-31T13:02:28.065Z,101671.77
2018-12-31T13:05:03.391Z,101669.31
2018-12-31T13:07:25.537Z,101671.88
2018-12-31T13:09:53.608Z,101667.91
2018-12-31T13:12:21.580Z,101664.84
2018-12-31T13:14:49.552Z,101671.19
2018-12-31T13:17:17.252Z,101674.16
2018-12-31T13:19:44.879Z,101672.55
2018-12-31T13:22:12.913Z,101675.25
2018-12-31T13:24:40.819Z,101671.97
2018-12-31T13:27:08.441Z,101678.59
2018-12-31T13:29:36.361Z,101680.47
2018-12-31T13:32:03.986Z,101671.78
2018-12-31T13:34:31.876Z,101677.70
2018-12-31T13:36:59.682Z,101673.95
2018-12-31T13:39:27.306Z,101669.01
2018-12-31T13:41:55.269Z,101668.62
2018-12-31T13:44:23.244Z,101672.36
2018-12-31T13:46:50.871Z,101666.12
2018-12-31T13:49:19.175Z,101664.17
2018-12-31T13:51:46.798Z,101659.22
2018-12-31T13:54:14.421Z,101660.00
2018-12-31T13:56:42.367Z,101663.97
2018-12-31T13:59:10.343Z,101666.92
2018-12-31T14:01:38.330Z,101670.09
2018-12-31T14:04:06.284Z,101668.23
2018-12-31T14:06:34.246Z,101662.69
2018-12-31T14:09:02.215Z,101663.86
2018-12-31T14:11:30.188Z,101671.08
2018-12-31T14:13:58.156Z,101669.88
2018-12-31T14:16:25.970Z,101661.88
2018-12-31T14:18:53.891Z,101664.45
2018-12-31T14:37:42.844Z,101677.14
2018-12-31T14:40:11.290Z,101679.31
2018-12-31T14:42:40.364Z,101686.78
2018-12-31T14:45:09.386Z,101679.94
2018-12-31T14:47:39.036Z,101695.11
2018-12-31T14:50:07.396Z,101699.22
2018-12-31T14:52:37.218Z,101697.20
2018-12-31T14:55:06.404Z,101698.72
2018-12-31T14:57:34.739Z,101703.07
2018-12-31T15:00:03.343Z,101698.81
2018-12-31T15:02:31.709Z,101698.53
2018-12-31T15:05:00.432Z,101709.30
2018-12-31T15:07:28.868Z,101699.31
2018-12-31T15:09:58.760Z,101706.12
2018-12-31T15:12:28.636Z,101707.84
2018-12-31T15:14:57.006Z,101706.73
2018-12-31T15:17:26.058Z,101708.81
2018-12-31T15:19:54.794Z,101703.87
2018-12-31T15:22:29.056Z,101707.64
2018-12-31T15:30:04.733Z,101684.83
2018-12-31T15:32:32.811Z,101685.94
2018-12-31T15:35:00.422Z,101691.27
2018-12-31T15:37:28.334Z,101681.76
2018-12-31T15:39:56.128Z,101688.19
2018-12-31T15:42:23.757Z,101686.91
2018-12-31T15:44:51.731Z,101683.52
2018-12-31T15:47:19.706Z,101696.45
2018-12-31T15:49:47.672Z,101681.45
2018-12-31T15:52:15.641Z,101681.33
2018-12-31T15:54:43.612Z,101689.39
2018-12-31T15:57:11.581Z,101683.47
2018-12-31T15:59:39.213Z,101699.02
2018-12-31T16:02:06.840Z,101687.83
2018-12-31T16:04:34.781Z,101695.11
2018-12-31T16:07:02.843Z,101689.31
2018-12-31T16:09:30.714Z,101683.27
2018-12-31T16:11:58.684Z,101687.05
2018-12-31T16:14:26.652Z,101688.41
2018-12-31T16:16:54.289Z,101682.07
2018-12-31T16:19:21.916Z,101688.66
2018-12-31T16:21:49.542Z,101684.61
2018-12-31T16:24:17.513Z,101687.91
2018-12-31T16:26:45.194Z,101687.41
2018-12-31T16:29:13.053Z,101686.59
2018-12-31T16:31:41.008Z,101679.11
2018-12-31T16:34:08.913Z,101688.22
2018-12-31T16:36:36.546Z,101689.00
2018-12-31T16:39:04.292Z,101691.69
2018-12-31T16:41:32.273Z,101693.24
2018-12-31T16:43:59.937Z,101685.53
2018-12-31T16:46:27.907Z,101686.63
2018-12-31T16:48:55.976Z,101684.72
2018-12-31T16:51:23.599Z,101687.20
2018-12-31T16:53:51.503Z,101685.11
2018-12-31T16:56:19.479Z,101685.30
2018-12-31T16:58:47.445Z,101680.98
2018-12-31T17:01:15.517Z,101681.95
2018-12-31T17:03:43.221Z,101686.12
2018-12-31T17:06:10.845Z,101686.70
2018-12-31T17:08:38.483Z,101688.91
2018-12-31T17:11:06.368Z,101683.74
2018-12-31T17:13:34.068Z,101681.67
2018-12-31T17:16:01.974Z,101685.64
2018-12-31T17:18:29.871Z,101683.08
2018-12-31T17:20:57.842Z,101691.06
2018-12-31T17:23:25.546Z,101678.80
2018-12-31T17:25:53.170Z,101677.11
2018-12-31T17:28:21.131Z,101683.74
2018-12-31T17:30:48.754Z,101679.58
2018-12-31T17:33:16.666Z,101674.83
2018-12-31T17:35:44.633Z,101673.84
2018-12-31T17:38:12.603Z,101672.05
2018-12-31T17:40:40.572Z,101682.57
2018-12-31T17:43:08.541Z,101678.98
2018-12-31T17:45:36.160Z,101677.12
2018-12-31T17:48:04.079Z,101685.53
2018-12-31T17:50:31.701Z,101680.27
2018-12-31T17:52:59.339Z,101678.30
2018-12-31T17:55:26.962Z,101678.88
2018-12-31T17:57:55.137Z,101682.34
2018-12-31T18:00:23.103Z,101676.11
2018-12-31T18:02:51.093Z,101666.41
2018-12-31T18:05:19.055Z,101672.84
2018-12-31T18:07:47.013Z,101667.42
2018-12-31T18:10:14.979Z,101671.94
2018-12-31T18:12:42.949Z,101670.57
2018-12-31T18:15:10.917Z,101668.20
2018-12-31T18:17:38.895Z,101663.13
2018-12-31T18:20:06.876Z,101664.73
2018-12-31T18:22:34.834Z,101657.52
2018-12-31T18:25:02.635Z,101654.22
2018-12-31T18:27:30.568Z,101656.00
2018-12-31T18:29:58.193Z,101661.46
2018-12-31T18:32:26.092Z,101671.63
2018-12-31T18:34:54.060Z,101664.00
2018-12-31T18:37:22.033Z,101676.97
2018-12-31T18:39:50.023Z,101672.72
2018-12-31T18:42:18.672Z,101669.64
2018-12-31T18:44:46.760Z,101681.02
2018-12-31T18:47:14.732Z,101671.52
2018-12-31T18:49:42.371Z,101672.53
2018-12-31T18:52:10.672Z,101672.53
2018-12-31T18:54:38.642Z,101677.67
2018-12-31T18:57:06.291Z,101672.53
2018-12-31T18:59:33.912Z,101677.86
2018-12-31T19:02:01.836Z,101670.73
2018-12-31T19:04:29.463Z,101662.05
2018-12-31T19:06:57.087Z,101667.30
2018-12-31T19:09:25.049Z,101671.05
2018-12-31T19:11:53.011Z,101674.20
2018-12-31T19:14:20.716Z,101675.02
2018-12-31T19:16:48.626Z,101679.58
2018-12-31T19:19:16.899Z,101675.72
2018-12-31T19:21:44.868Z,101678.88
2018-12-31T19:24:12.501Z,101678.48
2018-12-31T19:26:40.402Z,101672.84
2018-12-31T19:29:08.367Z,101671.97
2018-12-31T19:31:36.355Z,101668.39
2018-12-31T19:34:04.167Z,101661.88
2018-12-31T19:36:31.801Z,101649.99
2018-12-31T19:38:59.438Z,101644.16
2018-12-31T19:41:27.056Z,101641.58
2018-12-31T19:43:54.686Z,101639.81
2018-12-31T19:46:22.648Z,101641.70
2018-12-31T19:48:50.601Z,101643.87
2018-12-31T19:51:18.567Z,101645.83
2018-12-31T19:53:46.200Z,101648.52
2018-12-31T19:56:13.831Z,101644.07
2018-12-31T19:58:41.768Z,101645.65
2018-12-31T20:01:10.037Z,101654.27
2018-12-31T20:03:38.010Z,101657.71
2018-12-31T20:06:05.974Z,101649.80
2018-12-31T20:08:33.944Z,101652.67
2018-12-31T20:11:01.910Z,101648.23
2018-12-31T20:13:29.885Z,101647.65
2018-12-31T20:15:57.846Z,101638.23
2018-12-31T20:18:25.478Z,101642.00
2018-12-31T20:20:53.378Z,101645.86
2018-12-31T20:23:21.350Z,101641.58
2018-12-31T20:25:49.417Z,101640.61
2018-12-31T20:28:17.389Z,101636.83
2018-12-31T20:30:45.357Z,101636.44
2018-12-31T20:33:12.994Z,101628.53
2018-12-31T20:35:40.888Z,101636.34
2018-12-31T20:38:08.857Z,101635.88
2018-12-31T20:40:36.826Z,101632.30
2018-12-31T20:43:04.796Z,101630.23
2018-12-31T20:45:32.870Z,101623.70
2018-12-31T20:48:01.863Z,101620.42
2018-12-31T20:50:30.055Z,101622.31
2018-12-31T20:52:58.012Z,101625.66
2018-12-31T20:55:26.841Z,101619.42
2018-12-31T20:57:54.971Z,101616.16
2018-12-31T21:00:22.949Z,101618.04
2018-12-31T21:02:50.925Z,101608.16
2018-12-31T21:05:18.875Z,101604.39
2018-12-31T21:07:46.847Z,101607.55
2018-12-31T21:10:14.817Z,101610.93
2018-12-31T21:12:42.891Z,101610.05
2018-12-31T21:15:10.865Z,101615.27
2018-12-31T21:17:38.833Z,101615.39
2018-12-31T21:20:06.467Z,101612.00
2018-12-31T21:22:34.363Z,101613.20
2018-12-31T21:25:02.344Z,101615.16
2018-12-31T21:27:30.504Z,101604.10
2018-12-31T21:29:58.481Z,101604.59
2018-12-31T21:32:26.096Z,101603.81
2018-12-31T21:34:53.739Z,101595.87
2018-12-31T21:37:21.668Z,101596.69
2018-12-31T21:39:49.653Z,101594.59
2018-12-31T21:42:17.277Z,101595.77
2018-12-31T21:44:45.265Z,101590.63
2018-12-31T21:47:12.889Z,101590.83
2018-12-31T21:49:40.520Z,101592.31
2018-12-31T21:52:08.462Z,101595.00
2018-12-31T21:54:36.434Z,101592.81
2018-12-31T21:57:04.503Z,101579.64
2018-12-31T21:59:32.473Z,101582.53
2018-12-31T22:02:00.436Z,101584.48
2018-12-31T22:04:28.072Z,101578.75
2018-12-31T22:06:55.986Z,101576.80
2018-12-31T22:09:24.246Z,101573.33
2018-12-31T22:11:52.193Z,101574.81
2018-12-31T22:14:19.829Z,101562.93
2018-12-31T22:16:47.744Z,101561.25
2018-12-31T22:19:15.781Z,101562.03
2018-12-31T22:21:43.344Z,101564.02
2018-12-31T22:24:11.567Z,101555.72
2018-12-31T22:26:39.528Z,101555.72
2018-12-31T22:29:07.488Z,101549.80
2018-12-31T22:31:35.466Z,101545.94
2018-12-31T22:34:03.109Z,101542.45
2018-12-31T22:36:30.992Z,101535.75
2018-12-31T22:38:58.958Z,101533.46
2018-12-31T22:41:26.587Z,101539.42
2018-12-31T22:43:54.492Z,101532.28
2018-12-31T22:46:22.462Z,101519.70
2018-12-31T22:48:50.434Z,101527.63
2018-12-31T22:51:18.454Z,101527.81
2018-12-31T22:53:46.692Z,101514.95
2018-12-31T22:56:14.648Z,101525.16
2018-12-31T22:58:42.614Z,101517.44
2018-12-31T23:01:10.581Z,101525.16
2018-12-31T23:03:38.552Z,101511.08
2018-12-31T23:06:06.179Z,101504.97
2018-12-31T23:08:34.084Z,101511.27
2018-12-31T23:11:01.790Z,101496.33
2018-12-31T23:13:29.717Z,101507.41
2018-12-31T23:15:57.690Z,101509.72
2018-12-31T23:18:25.989Z,101503.34
2018-12-31T23:20:55.357Z,101490.40
2018-12-31T23:23:23.163Z,101487.80
2018-12-31T23:25:51.098Z,101487.12
2018-12-31T23:28:18.730Z,101492.13
2018-12-31T23:30:46.651Z,101488.55
2018-12-31T23:33:14.807Z,101495.98
2018-12-31T23:35:42.458Z,101491.34
2018-12-31T23:38:10.084Z,101479.77
2018-12-31T23:40:37.998Z,101479.08
2018-12-31T23:43:06.555Z,101471.97
2018-12-31T23:45:34.496Z,101472.61
2018-12-31T23:48:02.422Z,101479.94
2018-12-31T23:50:30.063Z,101467.64
2018-12-31T23:52:58.051Z,101472.17
2018-12-31T23:55:26.044Z,101468.92
2018-12-31T23:57:53.994Z,101464.78
